sensor_id;sensor_type;location;lat;lon;timestamp;pressure;altitude;pressure_sealevel;temperature;humidity
62201;BME280;48197;42.732;27.192;2023-06-10T00:00:02;99184.81;;;15.26;100.00
62201;BME280;48197;42.732;27.192;2023-06-10T00:02:31;99186.47;;;15.24;100.00
62201;BME280;48197;42.732;27.192;2023-06-10T00:04:58;99185.94;;;15.16;100.00
62201;BME280;48197;42.732;27.192;2023-06-10T00:07:24;99189.84;;;15.06;100.00
62201;BME280;48197;42.732;27.192;2023-06-10T00:09:51;99182.06;;;15.01;100.00
62201;BME280;48197;42.732;27.192;2023-06-10T00:12:18;99184.19;;;14.97;100.00
62201;BME280;48197;42.732;27.192;2023-06-10T00:14:47;99180.31;;;14.94;100.00
62201;BME280;48197;42.732;27.192;2023-06-10T00:17:16;99174.75;;;14.94;100.00
62201;BME280;48197;42.732;27.192;2023-06-10T00:19:43;99177.53;;;14.94;100.00
62201;BME280;48197;42.732;27.192;2023-06-10T00:22:12;99178.63;;;14.97;100.00
62201;BME280;48197;42.732;27.192;2023-06-10T00:24:40;99173.06;;;14.97;100.00
62201;BME280;48197;42.732;27.192;2023-06-10T00:27:09;99166.38;;;14.94;100.00
62201;BME280;48197;42.732;27.192;2023-06-10T00:29:37;99168.50;;;14.90;100.00
62201;BME280;48197;42.732;27.192;2023-06-10T00:32:05;99180.53;;;14.87;100.00
62201;BME280;48197;42.732;27.192;2023-06-10T00:34:31;99177.41;;;14.85;100.00
62201;BME280;48197;42.732;27.192;2023-06-10T00:36:58;99173.84;;;14.84;100.00
62201;BME280;48197;42.732;27.192;2023-06-10T00:39:25;99175.53;;;14.82;100.00
62201;BME280;48197;42.732;27.192;2023-06-10T00:41:51;99176.09;;;14.77;100.00
62201;BME280;48197;42.732;27.192;2023-06-10T00:44:18;99177.09;;;14.70;100.00
62201;BME280;48197;42.732;27.192;2023-06-10T00:46:45;99173.75;;;14.62;100.00
62201;BME280;48197;42.732;27.192;2023-06-10T00:49:12;99174.31;;;14.57;100.00
62201;BME280;48197;42.732;27.192;2023-06-10T00:51:39;99176.31;;;14.57;100.00
62201;BME280;48197;42.732;27.192;2023-06-10T00:54:06;99180.75;;;14.54;100.00
62201;BME280;48197;42.732;27.192;2023-06-10T00:56:33;99173.72;;;14.49;100.00
62201;BME280;48197;42.732;27.192;2023-06-10T00:59:01;99173.50;;;14.44;100.00
62201;BME280;48197;42.732;27.192;2023-06-10T01:01:28;99176.06;;;14.38;100.00
62201;BME280;48197;42.732;27.192;2023-06-10T01:03:55;99182.94;;;14.34;100.00
62201;BME280;48197;42.732;27.192;2023-06-10T01:09:32;99178.28;;;14.30;100.00
62201;BME280;48197;42.732;27.192;2023-06-10T01:12:42;99178.72;;;14.29;100.00
62201;BME280;48197;42.732;27.192;2023-06-10T01:14:49;99175.06;;;14.32;100.00
62201;BME280;48197;42.732;27.192;2023-06-10T01:17:17;99173.50;;;14.31;100.00
62201;BME280;48197;42.732;27.192;2023-06-10T01:19:44;99163.28;;;14.28;100.00
62201;BME280;48197;42.732;27.192;2023-06-10T01:22:11;99173.28;;;14.25;100.00
62201;BME280;48197;42.732;27.192;2023-06-10T01:24:42;99162.94;;;14.26;100.00
62201;BME280;48197;42.732;27.192;2023-06-10T01:27:11;99164.72;;;14.33;100.00
62201;BME280;48197;42.732;27.192;2023-06-10T01:29:44;99153.38;;;14.40;100.00
62201;BME280;48197;42.732;27.192;2023-06-10T01:32:13;99154.03;;;14.44;100.00
62201;BME280;48197;42.732;27.192;2023-06-10T01:34:42;99164.63;;;14.49;100.00
62201;BME280;48197;42.732;27.192;2023-06-10T01:37:09;99156.16;;;14.53;100.00
62201;BME280;48197;42.732;27.192;2023-06-10T01:39:38;99154.94;;;14.54;100.00
62201;BME280;48197;42.732;27.192;2023-06-10T01:42:05;99153.50;;;14.49;100.00
62201;BME280;48197;42.732;27.192;2023-06-10T01:44:33;99159.16;;;14.45;100.00
62201;BME280;48197;42.732;27.192;2023-06-10T01:46:59;99157.72;;;14.41;100.00
62201;BME280;48197;42.732;27.192;2023-06-10T01:49:26;99158.94;;;14.40;100.00
62201;BME280;48197;42.732;27.192;2023-06-10T01:51:54;99161.50;;;14.34;100.00
62201;BME280;48197;42.732;27.192;2023-06-10T01:54:21;99166.72;;;14.32;100.00
62201;BME280;48197;42.732;27.192;2023-06-10T01:56:48;99166.38;;;14.30;100.00
62201;BME280;48197;42.732;27.192;2023-06-10T01:59:13;99166.91;;;14.25;100.00
62201;BME280;48197;42.732;27.192;2023-06-10T02:01:40;99163.38;;;14.24;100.00
62201;BME280;48197;42.732;27.192;2023-06-10T02:04:07;99161.91;;;14.20;100.00
62201;BME280;48197;42.732;27.192;2023-06-10T02:06:33;99161.16;;;14.19;100.00
62201;BME280;48197;42.732;27.192;2023-06-10T02:09:01;99163.94;;;14.19;100.00
62201;BME280;48197;42.732;27.192;2023-06-10T02:11:27;99154.47;;;14.17;100.00
62201;BME280;48197;42.732;27.192;2023-06-10T02:13:54;99152.13;;;14.15;100.00
62201;BME280;48197;42.732;27.192;2023-06-10T02:16:21;99149.78;;;14.14;100.00
62201;BME280;48197;42.732;27.192;2023-06-10T02:18:47;99138.25;;;14.15;100.00
62201;BME280;48197;42.732;27.192;2023-06-10T02:21:14;99145.00;;;14.14;100.00
62201;BME280;48197;42.732;27.192;2023-06-10T02:23:41;99140.25;;;14.15;100.00
62201;BME280;48197;42.732;27.192;2023-06-10T02:26:08;99138.00;;;14.09;100.00
62201;BME280;48197;42.732;27.192;2023-06-10T02:28:34;99137.78;;;14.04;100.00
62201;BME280;48197;42.732;27.192;2023-06-10T02:31:01;99138.31;;;13.99;100.00
62201;BME280;48197;42.732;27.192;2023-06-10T02:33:28;99135.75;;;13.92;100.00
62201;BME280;48197;42.732;27.192;2023-06-10T02:35:55;99144.75;;;13.83;100.00
62201;BME280;48197;42.732;27.192;2023-06-10T02:38:21;99140.94;;;13.77;100.00
62201;BME280;48197;42.732;27.192;2023-06-10T02:40:49;99139.50;;;13.72;100.00
62201;BME280;48197;42.732;27.192;2023-06-10T02:43:15;99141.94;;;13.70;100.00
62201;BME280;48197;42.732;27.192;2023-06-10T02:45:42;99144.25;;;13.72;100.00
62201;BME280;48197;42.732;27.192;2023-06-10T02:48:08;99143.81;;;13.73;100.00
62201;BME280;48197;42.732;27.192;2023-06-10T02:50:35;99142.63;;;13.74;100.00
62201;BME280;48197;42.732;27.192;2023-06-10T02:53:02;99158.28;;;13.81;100.00
62201;BME280;48197;42.732;27.192;2023-06-10T02:55:28;99147.06;;;13.84;100.00
62201;BME280;48197;42.732;27.192;2023-06-10T02:57:55;99146.97;;;13.88;100.00
62201;BME280;48197;42.732;27.192;2023-06-10T03:00:21;99141.75;;;13.90;100.00
62201;BME280;48197;42.732;27.192;2023-06-10T03:02:48;99147.22;;;13.94;100.00
62201;BME280;48197;42.732;27.192;2023-06-10T03:05:15;99143.97;;;13.95;100.00
62201;BME280;48197;42.732;27.192;2023-06-10T03:07:43;99142.44;;;13.94;100.00
62201;BME280;48197;42.732;27.192;2023-06-10T03:10:10;99140.75;;;13.97;100.00
62201;BME280;48197;42.732;27.192;2023-06-10T03:12:37;99144.22;;;14.01;100.00
62201;BME280;48197;42.732;27.192;2023-06-10T03:15:03;99149.13;;;14.09;100.00
62201;BME280;48197;42.732;27.192;2023-06-10T03:17:31;99148.94;;;14.17;100.00
62201;BME280;48197;42.732;27.192;2023-06-10T03:19:58;99143.13;;;14.24;100.00
62201;BME280;48197;42.732;27.192;2023-06-10T03:22:24;99138.47;;;14.34;100.00
62201;BME280;48197;42.732;27.192;2023-06-10T03:24:51;99141.03;;;14.41;100.00
62201;BME280;48197;42.732;27.192;2023-06-10T03:27:17;99143.59;;;14.48;100.00
62201;BME280;48197;42.732;27.192;2023-06-10T03:29:44;99144.25;;;14.52;100.00
62201;BME280;48197;42.732;27.192;2023-06-10T03:32:11;99147.28;;;14.58;100.00
62201;BME280;48197;42.732;27.192;2023-06-10T03:34:37;99151.06;;;14.64;100.00
62201;BME280;48197;42.732;27.192;2023-06-10T03:37:04;99142.81;;;14.73;100.00
62201;BME280;48197;42.732;27.192;2023-06-10T03:39:32;99146.47;;;14.83;100.00
62201;BME280;48197;42.732;27.192;2023-06-10T03:41:58;99144.25;;;14.90;100.00
62201;BME280;48197;42.732;27.192;2023-06-10T03:44:25;99145.13;;;15.00;100.00
62201;BME280;48197;42.732;27.192;2023-06-10T03:46:52;99148.00;;;15.09;100.00
62201;BME280;48197;42.732;27.192;2023-06-10T03:49:19;99141.72;;;15.18;100.00
62201;BME280;48197;42.732;27.192;2023-06-10T03:51:46;99142.59;;;15.28;100.00
62201;BME280;48197;42.732;27.192;2023-06-10T03:54:13;99146.09;;;15.41;100.00
62201;BME280;48197;42.732;27.192;2023-06-10T03:56:39;99146.81;;;15.55;100.00
62201;BME280;48197;42.732;27.192;2023-06-10T03:59:06;99150.66;;;15.70;100.00
62201;BME280;48197;42.732;27.192;2023-06-10T04:01:32;99138.91;;;15.88;100.00
62201;BME280;48197;42.732;27.192;2023-06-10T04:03:59;99143.97;;;16.11;100.00
62201;BME280;48197;42.732;27.192;2023-06-10T04:06:27;99151.84;;;16.35;100.00
62201;BME280;48197;42.732;27.192;2023-06-10T04:08:55;99147.44;;;16.56;100.00
62201;BME280;48197;42.732;27.192;2023-06-10T04:11:23;99146.69;;;16.65;100.00
62201;BME280;48197;42.732;27.192;2023-06-10T04:13:50;99143.59;;;16.72;100.00
62201;BME280;48197;42.732;27.192;2023-06-10T04:16:17;99132.34;;;16.85;100.00
62201;BME280;48197;42.732;27.192;2023-06-10T04:18:43;99131.91;;;16.96;100.00
62201;BME280;48197;42.732;27.192;2023-06-10T04:21:10;99133.34;;;17.09;100.00
62201;BME280;48197;42.732;27.192;2023-06-10T04:23:37;99135.19;;;17.22;100.00
62201;BME280;48197;42.732;27.192;2023-06-10T04:26:04;99133.50;;;17.33;100.00
62201;BME280;48197;42.732;27.192;2023-06-10T04:28:32;99126.81;;;17.40;100.00
62201;BME280;48197;42.732;27.192;2023-06-10T04:30:58;99141.09;;;17.42;100.00
62201;BME280;48197;42.732;27.192;2023-06-10T04:33:25;99136.59;;;17.45;100.00
62201;BME280;48197;42.732;27.192;2023-06-10T04:35:52;99133.50;;;17.52;100.00
62201;BME280;48197;42.732;27.192;2023-06-10T04:38:18;99130.53;;;17.55;100.00
62201;BME280;48197;42.732;27.192;2023-06-10T04:40:45;99129.47;;;17.53;100.00
62201;BME280;48197;42.732;27.192;2023-06-10T04:43:12;99134.44;;;17.58;100.00
62201;BME280;48197;42.732;27.192;2023-06-10T04:45:39;99133.31;;;17.74;100.00
62201;BME280;48197;42.732;27.192;2023-06-10T04:48:06;99133.94;;;17.97;100.00
62201;BME280;48197;42.732;27.192;2023-06-10T04:50:33;99141.50;;;18.14;100.00
62201;BME280;48197;42.732;27.192;2023-06-10T04:53:00;99142.69;;;18.32;100.00
62201;BME280;48197;42.732;27.192;2023-06-10T04:55:27;99139.22;;;18.46;100.00
62201;BME280;48197;42.732;27.192;2023-06-10T04:57:54;99136.63;;;18.67;100.00
62201;BME280;48197;42.732;27.192;2023-06-10T05:00:21;99138.81;;;18.96;100.00
62201;BME280;48197;42.732;27.192;2023-06-10T05:02:47;99139.84;;;19.08;100.00
62201;BME280;48197;42.732;27.192;2023-06-10T05:05:18;99137.69;;;19.27;100.00
62201;BME280;48197;42.732;27.192;2023-06-10T05:07:45;99138.31;;;19.46;100.00
62201;BME280;48197;42.732;27.192;2023-06-10T05:10:11;99138.91;;;19.65;100.00
62201;BME280;48197;42.732;27.192;2023-06-10T05:12:38;99135.97;;;19.83;100.00
62201;BME280;48197;42.732;27.192;2023-06-10T05:15:06;99141.41;;;20.02;100.00
62201;BME280;48197;42.732;27.192;2023-06-10T05:17:33;99133.66;;;20.11;100.00
62201;BME280;48197;42.732;27.192;2023-06-10T05:20:01;99132.31;;;20.22;100.00
62201;BME280;48197;42.732;27.192;2023-06-10T05:22:30;99139.94;;;20.36;100.00
62201;BME280;48197;42.732;27.192;2023-06-10T05:24:57;99137.41;;;20.53;100.00
62201;BME280;48197;42.732;27.192;2023-06-10T05:27:23;99136.34;;;20.86;100.00
62201;BME280;48197;42.732;27.192;2023-06-10T05:29:50;99126.97;;;21.30;100.00
62201;BME280;48197;42.732;27.192;2023-06-10T05:32:16;99126.38;;;21.67;100.00
62201;BME280;48197;42.732;27.192;2023-06-10T05:34:43;99127.91;;;21.94;100.00
62201;BME280;48197;42.732;27.192;2023-06-10T05:37:10;99129.38;;;22.15;100.00
62201;BME280;48197;42.732;27.192;2023-06-10T05:39:37;99127.00;;;22.34;100.00
62201;BME280;48197;42.732;27.192;2023-06-10T05:42:05;99126.97;;;22.66;100.00
62201;BME280;48197;42.732;27.192;2023-06-10T05:44:33;99124.31;;;23.00;100.00
62201;BME280;48197;42.732;27.192;2023-06-10T05:46:59;99124.75;;;23.36;100.00
62201;BME280;48197;42.732;27.192;2023-06-10T05:49:26;99127.16;;;23.60;100.00
62201;BME280;48197;42.732;27.192;2023-06-10T05:51:53;99123.13;;;23.83;100.00
62201;BME280;48197;42.732;27.192;2023-06-10T05:54:22;99120.81;;;24.10;100.00
62201;BME280;48197;42.732;27.192;2023-06-10T05:56:49;99125.72;;;24.60;97.21
62201;BME280;48197;42.732;27.192;2023-06-10T05:59:16;99127.06;;;25.29;92.80
62201;BME280;48197;42.732;27.192;2023-06-10T06:01:42;99130.44;;;26.11;89.71
62201;BME280;48197;42.732;27.192;2023-06-10T06:04:09;99121.78;;;27.07;82.21
62201;BME280;48197;42.732;27.192;2023-06-10T06:06:38;99117.34;;;27.74;72.42
62201;BME280;48197;42.732;27.192;2023-06-10T06:09:05;99119.72;;;28.21;67.14
62201;BME280;48197;42.732;27.192;2023-06-10T06:11:33;99109.50;;;28.45;61.76
62201;BME280;48197;42.732;27.192;2023-06-10T06:13:59;99107.91;;;28.76;58.25
62201;BME280;48197;42.732;27.192;2023-06-10T06:16:26;99116.09;;;28.93;54.30
62201;BME280;48197;42.732;27.192;2023-06-10T06:18:53;99110.75;;;28.89;51.73
62201;BME280;48197;42.732;27.192;2023-06-10T06:21:19;99108.56;;;28.82;49.33
62201;BME280;48197;42.732;27.192;2023-06-10T06:23:46;99108.69;;;28.90;49.19
62201;BME280;48197;42.732;27.192;2023-06-10T06:26:12;99108.81;;;28.98;48.07
62201;BME280;48197;42.732;27.192;2023-06-10T06:28:39;99112.72;;;28.81;49.28
62201;BME280;48197;42.732;27.192;2023-06-10T06:31:06;99105.81;;;29.03;48.20
62201;BME280;48197;42.732;27.192;2023-06-10T06:33:32;99099.94;;;29.28;46.87
62201;BME280;48197;42.732;27.192;2023-06-10T06:35:59;99099.03;;;29.33;46.36
62201;BME280;48197;42.732;27.192;2023-06-10T06:38:28;99095.97;;;29.79;45.73
62201;BME280;48197;42.732;27.192;2023-06-10T06:40:54;99102.59;;;30.37;43.70
62201;BME280;48197;42.732;27.192;2023-06-10T06:43:21;99096.66;;;30.56;42.92
62201;BME280;48197;42.732;27.192;2023-06-10T06:45:48;99103.28;;;30.79;42.57
62201;BME280;48197;42.732;27.192;2023-06-10T06:48:14;99096.91;;;30.65;41.48
62201;BME280;48197;42.732;27.192;2023-06-10T06:50:41;99093.16;;;30.70;40.95
62201;BME280;48197;42.732;27.192;2023-06-10T06:53:08;99096.38;;;30.46;40.88
62201;BME280;48197;42.732;27.192;2023-06-10T06:55:34;99090.59;;;30.59;41.32
62201;BME280;48197;42.732;27.192;2023-06-10T06:58:01;99090.72;;;31.47;40.49
62201;BME280;48197;42.732;27.192;2023-06-10T07:00:30;99089.69;;;32.04;38.17
62201;BME280;48197;42.732;27.192;2023-06-10T07:02:56;99095.81;;;32.16;36.27
62201;BME280;48197;42.732;27.192;2023-06-10T07:05:23;99091.41;;;32.38;36.38
62201;BME280;48197;42.732;27.192;2023-06-10T07:07:53;99093.88;;;32.49;35.60
62201;BME280;48197;42.732;27.192;2023-06-10T07:10:21;99094.03;;;32.98;35.32
62201;BME280;48197;42.732;27.192;2023-06-10T07:12:48;99091.59;;;32.71;33.86
62201;BME280;48197;42.732;27.192;2023-06-10T07:15:15;99088.34;;;31.98;35.68
62201;BME280;48197;42.732;27.192;2023-06-10T07:17:42;99095.88;;;31.57;35.99
62201;BME280;48197;42.732;27.192;2023-06-10T07:20:08;99095.41;;;32.04;36.04
62201;BME280;48197;42.732;27.192;2023-06-10T07:22:35;99096.38;;;32.14;35.79
62201;BME280;48197;42.732;27.192;2023-06-10T07:25:02;99096.09;;;31.74;35.65
62201;BME280;48197;42.732;27.192;2023-06-10T07:27:28;99090.38;;;31.66;36.05
62201;BME280;48197;42.732;27.192;2023-06-10T07:29:55;99090.94;;;31.72;35.92
62201;BME280;48197;42.732;27.192;2023-06-10T07:32:22;99086.66;;;32.02;35.79
62201;BME280;48197;42.732;27.192;2023-06-10T07:34:50;99098.09;;;32.71;34.83
62201;BME280;48197;42.732;27.192;2023-06-10T07:37:16;99088.06;;;33.19;33.34
62201;BME280;48197;42.732;27.192;2023-06-10T07:39:43;99097.03;;;33.15;33.11
62201;BME280;48197;42.732;27.192;2023-06-10T07:42:09;99081.09;;;32.81;34.20
62201;BME280;48197;42.732;27.192;2023-06-10T07:44:36;99084.75;;;33.30;32.98
62201;BME280;48197;42.732;27.192;2023-06-10T07:47:03;99084.84;;;33.55;32.29
62201;BME280;48197;42.732;27.192;2023-06-10T07:49:29;99082.09;;;33.72;32.19
62201;BME280;48197;42.732;27.192;2023-06-10T08:04:06;99100.47;;;34.45;28.96
62201;BME280;48197;42.732;27.192;2023-06-10T08:06:33;99097.41;;;34.25;29.35
62201;BME280;48197;42.732;27.192;2023-06-10T08:09:00;99099.91;;;33.55;28.90
62201;BME280;48197;42.732;27.192;2023-06-10T08:11:26;99104.38;;;32.70;29.65
62201;BME280;48197;42.732;27.192;2023-06-10T08:13:56;99095.03;;;32.23;31.22
62201;BME280;48197;42.732;27.192;2023-06-10T08:16:23;99097.72;;;32.06;32.54
62201;BME280;48197;42.732;27.192;2023-06-10T08:18:50;99086.06;;;32.73;31.13
62201;BME280;48197;42.732;27.192;2023-06-10T08:21:16;99087.16;;;33.08;29.74
62201;BME280;48197;42.732;27.192;2023-06-10T08:23:43;99090.28;;;32.26;29.83
62201;BME280;48197;42.732;27.192;2023-06-10T08:26:10;99091.41;;;32.15;30.65
62201;BME280;48197;42.732;27.192;2023-06-10T08:28:37;99097.34;;;32.25;30.68
62201;BME280;48197;42.732;27.192;2023-06-10T08:31:04;99096.91;;;31.98;31.37
62201;BME280;48197;42.732;27.192;2023-06-10T08:33:30;99090.78;;;32.93;31.32
62201;BME280;48197;42.732;27.192;2023-06-10T08:35:56;99075.78;;;33.74;29.68
62201;BME280;48197;42.732;27.192;2023-06-10T08:38:23;99078.34;;;33.54;29.40
62201;BME280;48197;42.732;27.192;2023-06-10T08:40:50;99085.69;;;33.32;29.93
62201;BME280;48197;42.732;27.192;2023-06-10T08:45:48;99075.63;;;34.22;29.24
62201;BME280;48197;42.732;27.192;2023-06-10T08:48:14;99082.91;;;34.83;28.17
62201;BME280;48197;42.732;27.192;2023-06-10T08:50:42;99081.78;;;34.19;28.61
62201;BME280;48197;42.732;27.192;2023-06-10T08:53:10;99084.84;;;34.21;28.95
62201;BME280;48197;42.732;27.192;2023-06-10T08:55:42;99074.91;;;34.14;29.11
62201;BME280;48197;42.732;27.192;2023-06-10T08:58:11;99074.69;;;34.62;29.29
62201;BME280;48197;42.732;27.192;2023-06-10T09:00:39;99069.25;;;34.06;29.46
62201;BME280;48197;42.732;27.192;2023-06-10T09:03:05;99072.59;;;33.62;30.05
62201;BME280;48197;42.732;27.192;2023-06-10T09:05:34;99066.00;;;33.77;30.12
62201;BME280;48197;42.732;27.192;2023-06-10T09:08:02;99070.88;;;33.92;30.42
62201;BME280;48197;42.732;27.192;2023-06-10T09:10:28;99073.34;;;33.63;30.64
62201;BME280;48197;42.732;27.192;2023-06-10T09:12:55;99066.69;;;33.60;30.24
62201;BME280;48197;42.732;27.192;2023-06-10T09:15:21;99059.38;;;33.67;31.14
62201;BME280;48197;42.732;27.192;2023-06-10T09:17:48;99061.22;;;34.30;30.62
62201;BME280;48197;42.732;27.192;2023-06-10T09:20:15;99062.91;;;32.94;31.63
62201;BME280;48197;42.732;27.192;2023-06-10T09:22:42;99060.53;;;31.90;33.07
62201;BME280;48197;42.732;27.192;2023-06-10T09:25:11;99068.00;;;30.90;34.84
62201;BME280;48197;42.732;27.192;2023-06-10T09:27:52;99066.00;;;30.77;35.74
62201;BME280;48197;42.732;27.192;2023-06-10T09:30:26;99065.72;;;32.23;34.04
62201;BME280;48197;42.732;27.192;2023-06-10T09:32:53;99063.28;;;32.98;32.46
62201;BME280;48197;42.732;27.192;2023-06-10T09:35:24;99063.34;;;32.83;32.63
62201;BME280;48197;42.732;27.192;2023-06-10T09:37:56;99060.66;;;31.54;33.31
62201;BME280;48197;42.732;27.192;2023-06-10T10:11:25;99051.41;;;31.25;33.94
62201;BME280;48197;42.732;27.192;2023-06-10T10:13:53;99049.84;;;31.24;32.50
62201;BME280;48197;42.732;27.192;2023-06-10T10:16:40;99047.50;;;31.43;31.76
62201;BME280;48197;42.732;27.192;2023-06-10T10:19:23;99038.22;;;31.89;31.43
62201;BME280;48197;42.732;27.192;2023-06-10T10:21:55;99044.13;;;31.83;30.97
62201;BME280;48197;42.732;27.192;2023-06-10T10:24:26;99040.72;;;32.00;31.04
62201;BME280;48197;42.732;27.192;2023-06-10T10:26:58;99048.13;;;32.49;30.78
62201;BME280;48197;42.732;27.192;2023-06-10T10:29:28;99037.28;;;31.94;31.23
62201;BME280;48197;42.732;27.192;2023-06-10T10:31:56;99037.13;;;32.00;31.39
62201;BME280;48197;42.732;27.192;2023-06-10T10:40:14;99033.66;;;33.51;29.77
62201;BME280;48197;42.732;27.192;2023-06-10T10:42:41;99028.19;;;33.05;30.02
62201;BME280;48197;42.732;27.192;2023-06-10T10:45:08;99034.63;;;31.88;31.05
62201;BME280;48197;42.732;27.192;2023-06-10T10:47:35;99032.28;;;31.64;31.68
62201;BME280;48197;42.732;27.192;2023-06-10T10:50:12;99036.53;;;32.09;31.17
62201;BME280;48197;42.732;27.192;2023-06-10T10:52:54;99033.66;;;31.78;31.72
62201;BME280;48197;42.732;27.192;2023-06-10T10:55:24;99027.75;;;32.61;30.43
62201;BME280;48197;42.732;27.192;2023-06-10T10:58:24;99031.09;;;33.38;29.61
62201;BME280;48197;42.732;27.192;2023-06-10T11:00:44;99028.59;;;34.60;28.03
62201;BME280;48197;42.732;27.192;2023-06-10T11:03:20;99031.09;;;34.64;27.52
62201;BME280;48197;42.732;27.192;2023-06-10T11:05:48;99019.41;;;34.44;28.39
62201;BME280;48197;42.732;27.192;2023-06-10T11:11:00;99026.63;;;32.25;29.45
62201;BME280;48197;42.732;27.192;2023-06-10T11:13:27;99018.25;;;32.04;29.69
62201;BME280;48197;42.732;27.192;2023-06-10T11:15:56;99023.94;;;32.50;29.75
62201;BME280;48197;42.732;27.192;2023-06-10T11:18:23;99017.63;;;33.15;29.19
62201;BME280;48197;42.732;27.192;2023-06-10T11:20:54;99022.38;;;33.61;27.84
62201;BME280;48197;42.732;27.192;2023-06-10T11:29:19;99001.38;;;35.31;25.21
62201;BME280;48197;42.732;27.192;2023-06-10T11:31:28;98998.13;;;35.71;24.77
62201;BME280;48197;42.732;27.192;2023-06-10T11:33:55;98989.25;;;35.87;23.94
62201;BME280;48197;42.732;27.192;2023-06-10T11:36:23;98981.38;;;35.87;23.88
62201;BME280;48197;42.732;27.192;2023-06-10T11:38:51;98996.47;;;35.78;23.81
62201;BME280;48197;42.732;27.192;2023-06-10T11:41:19;98990.88;;;36.17;23.51
62201;BME280;48197;42.732;27.192;2023-06-10T11:43:47;98982.69;;;36.13;23.25
62201;BME280;48197;42.732;27.192;2023-06-10T11:46:14;98986.31;;;35.40;23.89
62201;BME280;48197;42.732;27.192;2023-06-10T11:48:54;98981.66;;;35.45;23.42
62201;BME280;48197;42.732;27.192;2023-06-10T11:51:21;98976.38;;;35.88;23.48
62201;BME280;48197;42.732;27.192;2023-06-10T11:53:48;98973.63;;;36.46;22.85
62201;BME280;48197;42.732;27.192;2023-06-10T11:56:23;98975.75;;;36.26;22.97
62201;BME280;48197;42.732;27.192;2023-06-10T11:59:02;98973.84;;;35.92;23.48
62201;BME280;48197;42.732;27.192;2023-06-10T12:01:34;98983.16;;;36.49;23.37
62201;BME280;48197;42.732;27.192;2023-06-10T12:04:04;98980.38;;;37.38;22.41
62201;BME280;48197;42.732;27.192;2023-06-10T12:06:44;98978.63;;;37.55;21.62
62201;BME280;48197;42.732;27.192;2023-06-10T12:11:42;98980.09;;;33.94;24.58
62201;BME280;48197;42.732;27.192;2023-06-10T12:14:10;98962.19;;;33.36;25.40
62201;BME280;48197;42.732;27.192;2023-06-10T12:16:37;98956.28;;;33.34;25.62
62201;BME280;48197;42.732;27.192;2023-06-10T12:19:04;98961.38;;;33.03;26.57
62201;BME280;48197;42.732;27.192;2023-06-10T12:21:32;98958.16;;;33.89;25.38
62201;BME280;48197;42.732;27.192;2023-06-10T12:24:06;98954.94;;;35.25;24.46
62201;BME280;48197;42.732;27.192;2023-06-10T12:26:36;98946.53;;;36.49;23.16
62201;BME280;48197;42.732;27.192;2023-06-10T12:29:23;98952.31;;;38.02;22.51
62201;BME280;48197;42.732;27.192;2023-06-10T12:32:03;98942.56;;;38.71;21.94
62201;BME280;48197;42.732;27.192;2023-06-10T12:34:33;98942.75;;;38.52;22.00
62201;BME280;48197;42.732;27.192;2023-06-10T12:37:00;98948.66;;;36.78;23.14
62201;BME280;48197;42.732;27.192;2023-06-10T12:39:27;98946.66;;;37.61;23.08
62201;BME280;48197;42.732;27.192;2023-06-10T12:41:54;98948.16;;;38.14;21.44
62201;BME280;48197;42.732;27.192;2023-06-10T12:44:31;98943.09;;;37.72;22.20
62201;BME280;48197;42.732;27.192;2023-06-10T12:46:58;98935.75;;;38.12;21.55
62201;BME280;48197;42.732;27.192;2023-06-10T12:49:24;98938.19;;;37.43;22.39
62201;BME280;48197;42.732;27.192;2023-06-10T12:51:52;98930.59;;;37.48;22.33
62201;BME280;48197;42.732;27.192;2023-06-10T12:54:20;98939.72;;;36.35;22.50
62201;BME280;48197;42.732;27.192;2023-06-10T12:56:46;98938.78;;;36.13;23.23
62201;BME280;48197;42.732;27.192;2023-06-10T12:59:13;98933.19;;;36.54;22.61
62201;BME280;48197;42.732;27.192;2023-06-10T13:01:41;98930.75;;;36.89;22.35
62201;BME280;48197;42.732;27.192;2023-06-10T13:04:07;98931.41;;;37.70;22.56
62201;BME280;48197;42.732;27.192;2023-06-10T13:06:34;98932.81;;;37.90;22.54
62201;BME280;48197;42.732;27.192;2023-06-10T13:09:03;98934.09;;;37.46;21.74
62201;BME280;48197;42.732;27.192;2023-06-10T13:11:29;98931.97;;;36.86;22.15
62201;BME280;48197;42.732;27.192;2023-06-10T13:13:56;98931.25;;;36.37;22.97
62201;BME280;48197;42.732;27.192;2023-06-10T13:16:22;98935.59;;;36.18;23.81
62201;BME280;48197;42.732;27.192;2023-06-10T13:18:49;98936.72;;;35.76;23.88
62201;BME280;48197;42.732;27.192;2023-06-10T13:21:15;98937.75;;;35.07;24.62
62201;BME280;48197;42.732;27.192;2023-06-10T13:23:43;98928.03;;;34.75;25.08
62201;BME280;48197;42.732;27.192;2023-06-10T13:26:10;98928.53;;;34.82;25.03
62201;BME280;48197;42.732;27.192;2023-06-10T13:28:37;98916.50;;;34.13;25.51
62201;BME280;48197;42.732;27.192;2023-06-10T13:31:04;98943.25;;;33.91;26.06
62201;BME280;48197;42.732;27.192;2023-06-10T13:33:31;98937.25;;;33.79;26.17
62201;BME280;48197;42.732;27.192;2023-06-10T13:35:58;98932.41;;;32.99;26.87
62201;BME280;48197;42.732;27.192;2023-06-10T13:38:24;98927.31;;;32.33;28.10
62201;BME280;48197;42.732;27.192;2023-06-10T13:40:51;98938.25;;;32.04;28.52
62201;BME280;48197;42.732;27.192;2023-06-10T13:43:18;98924.16;;;33.10;27.27
62201;BME280;48197;42.732;27.192;2023-06-10T13:45:45;98929.69;;;34.09;26.68
62201;BME280;48197;42.732;27.192;2023-06-10T13:48:12;98923.22;;;34.61;26.31
62201;BME280;48197;42.732;27.192;2023-06-10T13:50:38;98928.38;;;34.45;26.42
62201;BME280;48197;42.732;27.192;2023-06-10T13:53:05;98924.63;;;34.00;27.28